Terminal Aerodrome Forecast
Issued by NWS

Home | Current Version | Previous Version | Text Only | Print | Product List | Glossary On
Versions: 1 2 3 4 5 6 7 8 9 10 11 12 13 14 15 16 17 18 19 20 21 22 23 24 25 26 27 28 29 30 31 32 33 34 35 36
977
FTUS43 KGLD 131737
TAFMCK
TAF
KMCK 131737Z 1318/1418 33025G38KT P6SM SKC
     FM132200 36015G25KT P6SM SCT150
     FM140000 33010KT P6SM BKN100=

USA.gov is the U.S. government's official web portal to all federal, state and local government web resources and services.